<?xml version="1.0" encoding="UTF-8" standalone="no" ?>
<gpx xmlns="http://www.topografix.com/GPX/1/1" xmlns:xsi="http://www.w3.org/2001/XMLSchema-instance" xsi:schemaLocation="http://www.topografix.com/GPX/1/1 http://www.topografix.com/GPX/1/1/gpx.xsd" version="1.1" creator="VisuGPX - https://www.visugpx.com">
  <metadata>
    <name>BRC Douce avec Alain - Sur les bords de l’Yerres- 25012024</name>
    <desc><![CDATA[Rando facile au départ de Brunoy

IBP: 21 

#Douce
#Brunoy

]]></desc>
  </metadata>
  <trk>
    <name><![CDATA[BRC Rando douce A Ducreux - Sur les bords de l’Yerres- 25 01 2024]]></name>
    <trkseg>
      <trkpt lat="48.69904" lon="2.49444">
        <ele>44</ele>
        <time>2024-01-25T13:35:03+01:00</time>
      </trkpt>
      <trkpt lat="48.69868" lon="2.49492">
        <ele>43</ele>
      </trkpt>
      <trkpt lat="48.69876" lon="2.49577">
        <ele>41</ele>
      </trkpt>
      <trkpt lat="48.69929" lon="2.49661">
        <ele>41</ele>
      </trkpt>
      <trkpt lat="48.69904" lon="2.49697">
        <ele>32</ele>
        <time>2024-01-25T13:35:16+01:00</time>
      </trkpt>
      <trkpt lat="48.69885" lon="2.49714">
        <ele>38</ele>
        <time>2024-01-25T13:35:37+01:00</time>
      </trkpt>
      <trkpt lat="48.69869" lon="2.4974">
        <ele>39</ele>
        <time>2024-01-25T13:36:00+01:00</time>
      </trkpt>
      <trkpt lat="48.69852" lon="2.49765">
        <ele>39</ele>
        <time>2024-01-25T13:36:21+01:00</time>
      </trkpt>
      <trkpt lat="48.69836" lon="2.4979">
        <ele>39</ele>
        <time>2024-01-25T13:36:48+01:00</time>
      </trkpt>
      <trkpt lat="48.69821" lon="2.49817">
        <ele>38</ele>
        <time>2024-01-25T13:37:15+01:00</time>
      </trkpt>
      <trkpt lat="48.69805" lon="2.49842">
        <ele>39</ele>
        <time>2024-01-25T13:37:39+01:00</time>
      </trkpt>
      <trkpt lat="48.69788" lon="2.49869">
        <ele>39</ele>
        <time>2024-01-25T13:38:02+01:00</time>
      </trkpt>
      <trkpt lat="48.69774" lon="2.49898">
        <ele>39</ele>
        <time>2024-01-25T13:38:27+01:00</time>
      </trkpt>
      <trkpt lat="48.69758" lon="2.49923">
        <ele>39</ele>
        <time>2024-01-25T13:38:48+01:00</time>
      </trkpt>
      <trkpt lat="48.69743" lon="2.4995">
        <ele>39</ele>
        <time>2024-01-25T13:39:13+01:00</time>
      </trkpt>
      <trkpt lat="48.69724" lon="2.4997">
        <ele>39</ele>
        <time>2024-01-25T13:39:35+01:00</time>
      </trkpt>
      <trkpt lat="48.69705" lon="2.49992">
        <ele>39</ele>
        <time>2024-01-25T13:40:00+01:00</time>
      </trkpt>
      <trkpt lat="48.69688" lon="2.50016">
        <ele>40</ele>
        <time>2024-01-25T13:40:21+01:00</time>
      </trkpt>
      <trkpt lat="48.69675" lon="2.50045">
        <ele>40</ele>
        <time>2024-01-25T13:40:46+01:00</time>
      </trkpt>
      <trkpt lat="48.69654" lon="2.50061">
        <ele>40</ele>
        <time>2024-01-25T13:41:10+01:00</time>
      </trkpt>
      <trkpt lat="48.69643" lon="2.5009">
        <ele>39</ele>
        <time>2024-01-25T13:41:32+01:00</time>
      </trkpt>
      <trkpt lat="48.69629" lon="2.50118">
        <ele>39</ele>
        <time>2024-01-25T13:41:52+01:00</time>
      </trkpt>
      <trkpt lat="48.6962" lon="2.50151">
        <ele>40</ele>
        <time>2024-01-25T13:42:18+01:00</time>
      </trkpt>
      <trkpt lat="48.69614" lon="2.50185">
        <ele>41</ele>
        <time>2024-01-25T13:42:41+01:00</time>
      </trkpt>
      <trkpt lat="48.69601" lon="2.50215">
        <ele>43</ele>
        <time>2024-01-25T13:43:07+01:00</time>
      </trkpt>
      <trkpt lat="48.69584" lon="2.50241">
        <ele>43</ele>
        <time>2024-01-25T13:43:27+01:00</time>
      </trkpt>
      <trkpt lat="48.69572" lon="2.5027">
        <ele>46</ele>
        <time>2024-01-25T13:43:56+01:00</time>
      </trkpt>
      <trkpt lat="48.69581" lon="2.50301">
        <ele>44</ele>
        <time>2024-01-25T13:45:03+01:00</time>
      </trkpt>
      <trkpt lat="48.69602" lon="2.50316">
        <ele>44</ele>
        <time>2024-01-25T13:45:29+01:00</time>
      </trkpt>
      <trkpt lat="48.69608" lon="2.50351">
        <ele>44</ele>
        <time>2024-01-25T13:46:10+01:00</time>
      </trkpt>
      <trkpt lat="48.69613" lon="2.50385">
        <ele>44</ele>
        <time>2024-01-25T13:46:39+01:00</time>
      </trkpt>
      <trkpt lat="48.69601" lon="2.50415">
        <ele>43</ele>
        <time>2024-01-25T13:47:02+01:00</time>
      </trkpt>
      <trkpt lat="48.69597" lon="2.50449">
        <ele>44</ele>
        <time>2024-01-25T13:47:25+01:00</time>
      </trkpt>
      <trkpt lat="48.69594" lon="2.50484">
        <ele>46</ele>
        <time>2024-01-25T13:47:48+01:00</time>
      </trkpt>
      <trkpt lat="48.69593" lon="2.50521">
        <ele>44</ele>
        <time>2024-01-25T13:48:12+01:00</time>
      </trkpt>
      <trkpt lat="48.69596" lon="2.50556">
        <ele>44</ele>
        <time>2024-01-25T13:48:37+01:00</time>
      </trkpt>
      <trkpt lat="48.69599" lon="2.5059">
        <ele>44</ele>
        <time>2024-01-25T13:48:59+01:00</time>
      </trkpt>
      <trkpt lat="48.696" lon="2.50625">
        <ele>44</ele>
        <time>2024-01-25T13:49:27+01:00</time>
      </trkpt>
      <trkpt lat="48.69603" lon="2.50659">
        <ele>45</ele>
        <time>2024-01-25T13:49:49+01:00</time>
      </trkpt>
      <trkpt lat="48.69607" lon="2.50692">
        <ele>44</ele>
        <time>2024-01-25T13:50:14+01:00</time>
      </trkpt>
      <trkpt lat="48.69608" lon="2.50727">
        <ele>43</ele>
        <time>2024-01-25T13:50:38+01:00</time>
      </trkpt>
      <trkpt lat="48.69611" lon="2.50761">
        <ele>44</ele>
        <time>2024-01-25T13:51:02+01:00</time>
      </trkpt>
      <trkpt lat="48.69611" lon="2.50796">
        <ele>44</ele>
        <time>2024-01-25T13:51:25+01:00</time>
      </trkpt>
      <trkpt lat="48.6961" lon="2.50831">
        <ele>44</ele>
        <time>2024-01-25T13:51:48+01:00</time>
      </trkpt>
      <trkpt lat="48.69612" lon="2.50867">
        <ele>45</ele>
        <time>2024-01-25T13:52:13+01:00</time>
      </trkpt>
      <trkpt lat="48.69614" lon="2.50901">
        <ele>45</ele>
        <time>2024-01-25T13:52:37+01:00</time>
      </trkpt>
      <trkpt lat="48.69608" lon="2.50935">
        <ele>42</ele>
        <time>2024-01-25T13:53:16+01:00</time>
      </trkpt>
      <trkpt lat="48.69587" lon="2.50952">
        <ele>42</ele>
        <time>2024-01-25T13:53:42+01:00</time>
      </trkpt>
      <trkpt lat="48.69567" lon="2.50965">
        <ele>46</ele>
        <time>2024-01-25T13:54:10+01:00</time>
      </trkpt>
      <trkpt lat="48.69545" lon="2.50978">
        <ele>49</ele>
        <time>2024-01-25T13:54:28+01:00</time>
      </trkpt>
      <trkpt lat="48.69528" lon="2.51001">
        <ele>49</ele>
        <time>2024-01-25T13:54:52+01:00</time>
      </trkpt>
      <trkpt lat="48.69513" lon="2.51027">
        <ele>46</ele>
        <time>2024-01-25T13:55:16+01:00</time>
      </trkpt>
      <trkpt lat="48.69494" lon="2.51043">
        <ele>45</ele>
        <time>2024-01-25T13:55:40+01:00</time>
      </trkpt>
      <trkpt lat="48.69459" lon="2.51077">
        <ele>44</ele>
        <time>2024-01-25T13:56:23+01:00</time>
      </trkpt>
      <trkpt lat="48.69435" lon="2.5108">
        <ele>48</ele>
        <time>2024-01-25T13:56:56+01:00</time>
      </trkpt>
      <trkpt lat="48.69415" lon="2.51098">
        <ele>51</ele>
        <time>2024-01-25T13:57:28+01:00</time>
      </trkpt>
      <trkpt lat="48.69407" lon="2.51131">
        <ele>54</ele>
        <time>2024-01-25T13:57:57+01:00</time>
      </trkpt>
      <trkpt lat="48.69411" lon="2.51167">
        <ele>56</ele>
        <time>2024-01-25T13:58:21+01:00</time>
      </trkpt>
      <trkpt lat="48.69424" lon="2.51195">
        <ele>57</ele>
        <time>2024-01-25T13:58:45+01:00</time>
      </trkpt>
      <trkpt lat="48.6943" lon="2.51228">
        <ele>59</ele>
        <time>2024-01-25T13:59:09+01:00</time>
      </trkpt>
      <trkpt lat="48.69441" lon="2.51259">
        <ele>58</ele>
        <time>2024-01-25T13:59:33+01:00</time>
      </trkpt>
      <trkpt lat="48.69456" lon="2.51285">
        <ele>55</ele>
        <time>2024-01-25T13:59:56+01:00</time>
      </trkpt>
      <trkpt lat="48.69471" lon="2.51313">
        <ele>54</ele>
        <time>2024-01-25T14:00:20+01:00</time>
      </trkpt>
      <trkpt lat="48.69476" lon="2.51347">
        <ele>50</ele>
        <time>2024-01-25T14:00:49+01:00</time>
      </trkpt>
      <trkpt lat="48.69471" lon="2.51381">
        <ele>52</ele>
        <time>2024-01-25T14:01:18+01:00</time>
      </trkpt>
      <trkpt lat="48.69473" lon="2.51416">
        <ele>51</ele>
        <time>2024-01-25T14:01:46+01:00</time>
      </trkpt>
      <trkpt lat="48.69467" lon="2.51449">
        <ele>54</ele>
        <time>2024-01-25T14:02:08+01:00</time>
      </trkpt>
      <trkpt lat="48.69467" lon="2.51483">
        <ele>53</ele>
        <time>2024-01-25T14:02:36+01:00</time>
      </trkpt>
      <trkpt lat="48.69446" lon="2.51497">
        <ele>58</ele>
        <time>2024-01-25T14:03:28+01:00</time>
      </trkpt>
      <trkpt lat="48.69424" lon="2.5151">
        <ele>59</ele>
        <time>2024-01-25T14:03:57+01:00</time>
      </trkpt>
      <trkpt lat="48.69405" lon="2.51528">
        <ele>59</ele>
        <time>2024-01-25T14:04:29+01:00</time>
      </trkpt>
      <trkpt lat="48.69383" lon="2.51529">
        <ele>61</ele>
        <time>2024-01-25T14:04:53+01:00</time>
      </trkpt>
      <trkpt lat="48.69381" lon="2.51564">
        <ele>62</ele>
        <time>2024-01-25T14:05:14+01:00</time>
      </trkpt>
      <trkpt lat="48.69375" lon="2.51597">
        <ele>60</ele>
        <time>2024-01-25T14:05:39+01:00</time>
      </trkpt>
      <trkpt lat="48.6936" lon="2.51623">
        <ele>61</ele>
        <time>2024-01-25T14:06:04+01:00</time>
      </trkpt>
      <trkpt lat="48.69344" lon="2.51649">
        <ele>61</ele>
        <time>2024-01-25T14:06:29+01:00</time>
      </trkpt>
      <trkpt lat="48.69328" lon="2.51673">
        <ele>63</ele>
        <time>2024-01-25T14:06:57+01:00</time>
      </trkpt>
      <trkpt lat="48.69312" lon="2.51697">
        <ele>63</ele>
        <time>2024-01-25T14:07:28+01:00</time>
      </trkpt>
      <trkpt lat="48.69298" lon="2.51724">
        <ele>64</ele>
        <time>2024-01-25T14:07:52+01:00</time>
      </trkpt>
      <trkpt lat="48.69284" lon="2.51753">
        <ele>63</ele>
        <time>2024-01-25T14:08:17+01:00</time>
      </trkpt>
      <trkpt lat="48.69269" lon="2.51779">
        <ele>65</ele>
        <time>2024-01-25T14:08:38+01:00</time>
      </trkpt>
      <trkpt lat="48.69256" lon="2.51809">
        <ele>65</ele>
        <time>2024-01-25T14:09:02+01:00</time>
      </trkpt>
      <trkpt lat="48.69242" lon="2.51836">
        <ele>65</ele>
        <time>2024-01-25T14:09:27+01:00</time>
      </trkpt>
      <trkpt lat="48.6923" lon="2.51865">
        <ele>62</ele>
        <time>2024-01-25T14:09:51+01:00</time>
      </trkpt>
      <trkpt lat="48.69215" lon="2.51892">
        <ele>62</ele>
        <time>2024-01-25T14:10:18+01:00</time>
      </trkpt>
      <trkpt lat="48.69202" lon="2.5192">
        <ele>61</ele>
        <time>2024-01-25T14:10:46+01:00</time>
      </trkpt>
      <trkpt lat="48.6919" lon="2.51951">
        <ele>59</ele>
        <time>2024-01-25T14:11:13+01:00</time>
      </trkpt>
      <trkpt lat="48.69173" lon="2.51974">
        <ele>59</ele>
        <time>2024-01-25T14:11:39+01:00</time>
      </trkpt>
      <trkpt lat="48.6916" lon="2.52003">
        <ele>55</ele>
        <time>2024-01-25T14:12:09+01:00</time>
      </trkpt>
      <trkpt lat="48.69153" lon="2.52037">
        <ele>52</ele>
        <time>2024-01-25T14:12:37+01:00</time>
      </trkpt>
      <trkpt lat="48.6914" lon="2.52065">
        <ele>47</ele>
        <time>2024-01-25T14:13:10+01:00</time>
      </trkpt>
      <trkpt lat="48.69131" lon="2.52098">
        <ele>45</ele>
        <time>2024-01-25T14:13:35+01:00</time>
      </trkpt>
      <trkpt lat="48.69123" lon="2.52129">
        <ele>44</ele>
        <time>2024-01-25T14:14:00+01:00</time>
      </trkpt>
      <trkpt lat="48.69132" lon="2.52161">
        <ele>45</ele>
        <time>2024-01-25T14:14:28+01:00</time>
      </trkpt>
      <trkpt lat="48.6914" lon="2.52193">
        <ele>43</ele>
        <time>2024-01-25T14:14:53+01:00</time>
      </trkpt>
      <trkpt lat="48.69146" lon="2.52226">
        <ele>45</ele>
        <time>2024-01-25T14:15:23+01:00</time>
      </trkpt>
      <trkpt lat="48.69155" lon="2.52258">
        <ele>44</ele>
        <time>2024-01-25T14:15:47+01:00</time>
      </trkpt>
      <trkpt lat="48.69164" lon="2.52289">
        <ele>43</ele>
        <time>2024-01-25T14:16:12+01:00</time>
      </trkpt>
      <trkpt lat="48.69172" lon="2.52322">
        <ele>45</ele>
        <time>2024-01-25T14:16:35+01:00</time>
      </trkpt>
      <trkpt lat="48.69184" lon="2.52352">
        <ele>45</ele>
        <time>2024-01-25T14:16:59+01:00</time>
      </trkpt>
      <trkpt lat="48.69196" lon="2.52382">
        <ele>45</ele>
        <time>2024-01-25T14:17:22+01:00</time>
      </trkpt>
      <trkpt lat="48.69216" lon="2.52398">
        <ele>45</ele>
        <time>2024-01-25T14:17:46+01:00</time>
      </trkpt>
      <trkpt lat="48.69239" lon="2.5241">
        <ele>43</ele>
        <time>2024-01-25T14:18:11+01:00</time>
      </trkpt>
      <trkpt lat="48.6926" lon="2.5242">
        <ele>43</ele>
        <time>2024-01-25T14:18:35+01:00</time>
      </trkpt>
      <trkpt lat="48.69279" lon="2.52442">
        <ele>44</ele>
        <time>2024-01-25T14:19:00+01:00</time>
      </trkpt>
      <trkpt lat="48.69297" lon="2.52461">
        <ele>43</ele>
        <time>2024-01-25T14:19:22+01:00</time>
      </trkpt>
      <trkpt lat="48.69317" lon="2.52478">
        <ele>44</ele>
        <time>2024-01-25T14:19:45+01:00</time>
      </trkpt>
      <trkpt lat="48.69334" lon="2.52503">
        <ele>46</ele>
        <time>2024-01-25T14:20:10+01:00</time>
      </trkpt>
      <trkpt lat="48.69345" lon="2.52534">
        <ele>46</ele>
        <time>2024-01-25T14:20:38+01:00</time>
      </trkpt>
      <trkpt lat="48.69352" lon="2.52569">
        <ele>44</ele>
        <time>2024-01-25T14:21:08+01:00</time>
      </trkpt>
      <trkpt lat="48.69352" lon="2.52603">
        <ele>44</ele>
        <time>2024-01-25T14:21:35+01:00</time>
      </trkpt>
      <trkpt lat="48.69359" lon="2.52637">
        <ele>45</ele>
        <time>2024-01-25T14:21:57+01:00</time>
      </trkpt>
      <trkpt lat="48.6936" lon="2.52671">
        <ele>43</ele>
        <time>2024-01-25T14:22:25+01:00</time>
      </trkpt>
      <trkpt lat="48.69362" lon="2.52706">
        <ele>45</ele>
        <time>2024-01-25T14:22:49+01:00</time>
      </trkpt>
      <trkpt lat="48.69359" lon="2.5274">
        <ele>46</ele>
        <time>2024-01-25T14:23:13+01:00</time>
      </trkpt>
      <trkpt lat="48.69364" lon="2.52773">
        <ele>44</ele>
        <time>2024-01-25T14:23:36+01:00</time>
      </trkpt>
      <trkpt lat="48.69372" lon="2.52806">
        <ele>47</ele>
        <time>2024-01-25T14:23:56+01:00</time>
      </trkpt>
      <trkpt lat="48.6939" lon="2.5283">
        <ele>47</ele>
        <time>2024-01-25T14:24:25+01:00</time>
      </trkpt>
      <trkpt lat="48.69406" lon="2.52853">
        <ele>45</ele>
        <time>2024-01-25T14:24:49+01:00</time>
      </trkpt>
      <trkpt lat="48.69426" lon="2.52875">
        <ele>44</ele>
        <time>2024-01-25T14:25:16+01:00</time>
      </trkpt>
      <trkpt lat="48.69438" lon="2.52907">
        <ele>45</ele>
        <time>2024-01-25T14:25:43+01:00</time>
      </trkpt>
      <trkpt lat="48.69451" lon="2.52936">
        <ele>46</ele>
        <time>2024-01-25T14:26:09+01:00</time>
      </trkpt>
      <trkpt lat="48.69458" lon="2.5297">
        <ele>46</ele>
        <time>2024-01-25T14:26:36+01:00</time>
      </trkpt>
      <trkpt lat="48.69474" lon="2.52996">
        <ele>45</ele>
        <time>2024-01-25T14:27:03+01:00</time>
      </trkpt>
      <trkpt lat="48.69495" lon="2.53008">
        <ele>47</ele>
        <time>2024-01-25T14:27:28+01:00</time>
      </trkpt>
      <trkpt lat="48.69516" lon="2.53022">
        <ele>48</ele>
        <time>2024-01-25T14:27:52+01:00</time>
      </trkpt>
      <trkpt lat="48.69538" lon="2.53034">
        <ele>45</ele>
        <time>2024-01-25T14:28:22+01:00</time>
      </trkpt>
      <trkpt lat="48.69559" lon="2.53047">
        <ele>45</ele>
        <time>2024-01-25T14:28:49+01:00</time>
      </trkpt>
      <trkpt lat="48.69582" lon="2.53055">
        <ele>46</ele>
        <time>2024-01-25T14:29:14+01:00</time>
      </trkpt>
      <trkpt lat="48.69601" lon="2.53076">
        <ele>46</ele>
        <time>2024-01-25T14:29:39+01:00</time>
      </trkpt>
      <trkpt lat="48.69621" lon="2.53094">
        <ele>46</ele>
        <time>2024-01-25T14:30:10+01:00</time>
      </trkpt>
      <trkpt lat="48.69643" lon="2.53089">
        <ele>49</ele>
        <time>2024-01-25T14:43:51+01:00</time>
      </trkpt>
      <trkpt lat="48.69666" lon="2.53089">
        <ele>44</ele>
        <time>2024-01-25T14:44:27+01:00</time>
      </trkpt>
      <trkpt lat="48.69686" lon="2.53106">
        <ele>44</ele>
        <time>2024-01-25T14:44:51+01:00</time>
      </trkpt>
      <trkpt lat="48.69707" lon="2.53119">
        <ele>43</ele>
        <time>2024-01-25T14:45:10+01:00</time>
      </trkpt>
      <trkpt lat="48.69728" lon="2.53129">
        <ele>40</ele>
        <time>2024-01-25T14:45:34+01:00</time>
      </trkpt>
      <trkpt lat="48.6975" lon="2.5314">
        <ele>44</ele>
        <time>2024-01-25T14:46:11+01:00</time>
      </trkpt>
      <trkpt lat="48.69771" lon="2.53156">
        <ele>45</ele>
        <time>2024-01-25T14:46:33+01:00</time>
      </trkpt>
      <trkpt lat="48.69789" lon="2.5318">
        <ele>47</ele>
        <time>2024-01-25T14:46:53+01:00</time>
      </trkpt>
      <trkpt lat="48.69812" lon="2.53187">
        <ele>44</ele>
        <time>2024-01-25T14:47:21+01:00</time>
      </trkpt>
      <trkpt lat="48.69835" lon="2.53192">
        <ele>43</ele>
        <time>2024-01-25T14:47:45+01:00</time>
      </trkpt>
      <trkpt lat="48.69857" lon="2.53188">
        <ele>45</ele>
        <time>2024-01-25T14:48:11+01:00</time>
      </trkpt>
      <trkpt lat="48.69877" lon="2.53171">
        <ele>44</ele>
        <time>2024-01-25T14:48:35+01:00</time>
      </trkpt>
      <trkpt lat="48.69898" lon="2.53157">
        <ele>45</ele>
        <time>2024-01-25T14:49:01+01:00</time>
      </trkpt>
      <trkpt lat="48.69917" lon="2.53139">
        <ele>45</ele>
        <time>2024-01-25T14:49:27+01:00</time>
      </trkpt>
      <trkpt lat="48.69936" lon="2.53117">
        <ele>45</ele>
        <time>2024-01-25T14:49:52+01:00</time>
      </trkpt>
      <trkpt lat="48.69958" lon="2.53112">
        <ele>43</ele>
        <time>2024-01-25T14:50:21+01:00</time>
      </trkpt>
      <trkpt lat="48.69978" lon="2.53095">
        <ele>41</ele>
        <time>2024-01-25T14:50:48+01:00</time>
      </trkpt>
      <trkpt lat="48.69997" lon="2.53076">
        <ele>43</ele>
        <time>2024-01-25T14:51:16+01:00</time>
      </trkpt>
      <trkpt lat="48.7002" lon="2.53065">
        <ele>41</ele>
        <time>2024-01-25T14:51:40+01:00</time>
      </trkpt>
      <trkpt lat="48.7004" lon="2.5305">
        <ele>45</ele>
        <time>2024-01-25T14:52:06+01:00</time>
      </trkpt>
      <trkpt lat="48.70061" lon="2.53037">
        <ele>46</ele>
        <time>2024-01-25T14:52:37+01:00</time>
      </trkpt>
      <trkpt lat="48.70085" lon="2.53028">
        <ele>45</ele>
        <time>2024-01-25T14:53:02+01:00</time>
      </trkpt>
      <trkpt lat="48.70106" lon="2.53011">
        <ele>44</ele>
        <time>2024-01-25T14:53:33+01:00</time>
      </trkpt>
      <trkpt lat="48.70126" lon="2.52994">
        <ele>43</ele>
        <time>2024-01-25T14:54:05+01:00</time>
      </trkpt>
      <trkpt lat="48.70142" lon="2.5297">
        <ele>43</ele>
        <time>2024-01-25T14:54:37+01:00</time>
      </trkpt>
      <trkpt lat="48.70165" lon="2.52959">
        <ele>44</ele>
        <time>2024-01-25T14:55:02+01:00</time>
      </trkpt>
      <trkpt lat="48.70184" lon="2.52941">
        <ele>41</ele>
        <time>2024-01-25T14:55:28+01:00</time>
      </trkpt>
      <trkpt lat="48.70206" lon="2.52929">
        <ele>41</ele>
        <time>2024-01-25T14:55:53+01:00</time>
      </trkpt>
      <trkpt lat="48.70229" lon="2.5292">
        <ele>40</ele>
        <time>2024-01-25T14:56:23+01:00</time>
      </trkpt>
      <trkpt lat="48.7025" lon="2.52906">
        <ele>41</ele>
        <time>2024-01-25T14:56:54+01:00</time>
      </trkpt>
      <trkpt lat="48.70272" lon="2.529">
        <ele>40</ele>
        <time>2024-01-25T14:57:20+01:00</time>
      </trkpt>
      <trkpt lat="48.70294" lon="2.52888">
        <ele>41</ele>
        <time>2024-01-25T14:57:48+01:00</time>
      </trkpt>
      <trkpt lat="48.70314" lon="2.52871">
        <ele>41</ele>
        <time>2024-01-25T14:58:16+01:00</time>
      </trkpt>
      <trkpt lat="48.70336" lon="2.52858">
        <ele>41</ele>
        <time>2024-01-25T14:58:44+01:00</time>
      </trkpt>
      <trkpt lat="48.70357" lon="2.52844">
        <ele>41</ele>
        <time>2024-01-25T14:59:09+01:00</time>
      </trkpt>
      <trkpt lat="48.70377" lon="2.52831">
        <ele>41</ele>
        <time>2024-01-25T14:59:33+01:00</time>
      </trkpt>
      <trkpt lat="48.70394" lon="2.52808">
        <ele>40</ele>
        <time>2024-01-25T14:59:58+01:00</time>
      </trkpt>
      <trkpt lat="48.70408" lon="2.52779">
        <ele>40</ele>
        <time>2024-01-25T15:00:25+01:00</time>
      </trkpt>
      <trkpt lat="48.70423" lon="2.52753">
        <ele>40</ele>
        <time>2024-01-25T15:00:55+01:00</time>
      </trkpt>
      <trkpt lat="48.70438" lon="2.52727">
        <ele>40</ele>
        <time>2024-01-25T15:01:21+01:00</time>
      </trkpt>
      <trkpt lat="48.70449" lon="2.52696">
        <ele>40</ele>
        <time>2024-01-25T15:01:48+01:00</time>
      </trkpt>
      <trkpt lat="48.70457" lon="2.52664">
        <ele>39</ele>
        <time>2024-01-25T15:02:15+01:00</time>
      </trkpt>
      <trkpt lat="48.70462" lon="2.52631">
        <ele>39</ele>
        <time>2024-01-25T15:02:40+01:00</time>
      </trkpt>
      <trkpt lat="48.70468" lon="2.52597">
        <ele>40</ele>
        <time>2024-01-25T15:03:09+01:00</time>
      </trkpt>
      <trkpt lat="48.70482" lon="2.52569">
        <ele>39</ele>
        <time>2024-01-25T15:03:38+01:00</time>
      </trkpt>
      <trkpt lat="48.70495" lon="2.52541">
        <ele>39</ele>
        <time>2024-01-25T15:04:03+01:00</time>
      </trkpt>
      <trkpt lat="48.70505" lon="2.52508">
        <ele>39</ele>
        <time>2024-01-25T15:04:52+01:00</time>
      </trkpt>
      <trkpt lat="48.7051" lon="2.52475">
        <ele>38</ele>
        <time>2024-01-25T15:05:19+01:00</time>
      </trkpt>
      <trkpt lat="48.70506" lon="2.52441">
        <ele>38</ele>
        <time>2024-01-25T15:08:35+01:00</time>
      </trkpt>
      <trkpt lat="48.70502" lon="2.52407">
        <ele>38</ele>
        <time>2024-01-25T15:09:03+01:00</time>
      </trkpt>
      <trkpt lat="48.70496" lon="2.52373">
        <ele>39</ele>
        <time>2024-01-25T15:09:32+01:00</time>
      </trkpt>
      <trkpt lat="48.70485" lon="2.52344">
        <ele>39</ele>
        <time>2024-01-25T15:09:57+01:00</time>
      </trkpt>
      <trkpt lat="48.70471" lon="2.52316">
        <ele>39</ele>
        <time>2024-01-25T15:10:44+01:00</time>
      </trkpt>
      <trkpt lat="48.70449" lon="2.5231">
        <ele>39</ele>
        <time>2024-01-25T15:11:21+01:00</time>
      </trkpt>
      <trkpt lat="48.70427" lon="2.523">
        <ele>39</ele>
        <time>2024-01-25T15:11:46+01:00</time>
      </trkpt>
      <trkpt lat="48.70406" lon="2.52286">
        <ele>40</ele>
        <time>2024-01-25T15:12:06+01:00</time>
      </trkpt>
      <trkpt lat="48.70384" lon="2.52276">
        <ele>40</ele>
        <time>2024-01-25T15:12:29+01:00</time>
      </trkpt>
      <trkpt lat="48.70361" lon="2.52271">
        <ele>40</ele>
        <time>2024-01-25T15:12:50+01:00</time>
      </trkpt>
      <trkpt lat="48.70338" lon="2.52268">
        <ele>41</ele>
        <time>2024-01-25T15:13:15+01:00</time>
      </trkpt>
      <trkpt lat="48.70315" lon="2.52263">
        <ele>40</ele>
        <time>2024-01-25T15:13:36+01:00</time>
      </trkpt>
      <trkpt lat="48.70292" lon="2.52265">
        <ele>41</ele>
        <time>2024-01-25T15:13:55+01:00</time>
      </trkpt>
      <trkpt lat="48.70269" lon="2.52266">
        <ele>41</ele>
        <time>2024-01-25T15:14:17+01:00</time>
      </trkpt>
      <trkpt lat="48.70245" lon="2.52264">
        <ele>40</ele>
        <time>2024-01-25T15:14:50+01:00</time>
      </trkpt>
      <trkpt lat="48.70223" lon="2.5227">
        <ele>41</ele>
        <time>2024-01-25T15:15:14+01:00</time>
      </trkpt>
      <trkpt lat="48.702" lon="2.52274">
        <ele>42</ele>
        <time>2024-01-25T15:15:37+01:00</time>
      </trkpt>
      <trkpt lat="48.70181" lon="2.52254">
        <ele>42</ele>
        <time>2024-01-25T15:15:59+01:00</time>
      </trkpt>
      <trkpt lat="48.70161" lon="2.52237">
        <ele>42</ele>
        <time>2024-01-25T15:16:24+01:00</time>
      </trkpt>
      <trkpt lat="48.7014" lon="2.52222">
        <ele>42</ele>
        <time>2024-01-25T15:16:48+01:00</time>
      </trkpt>
      <trkpt lat="48.70119" lon="2.52209">
        <ele>43</ele>
        <time>2024-01-25T15:17:11+01:00</time>
      </trkpt>
      <trkpt lat="48.70098" lon="2.52195">
        <ele>43</ele>
        <time>2024-01-25T15:17:38+01:00</time>
      </trkpt>
      <trkpt lat="48.70089" lon="2.52164">
        <ele>42</ele>
        <time>2024-01-25T15:18:02+01:00</time>
      </trkpt>
      <trkpt lat="48.70073" lon="2.52139">
        <ele>42</ele>
        <time>2024-01-25T15:18:26+01:00</time>
      </trkpt>
      <trkpt lat="48.70054" lon="2.52117">
        <ele>42</ele>
        <time>2024-01-25T15:18:50+01:00</time>
      </trkpt>
      <trkpt lat="48.70036" lon="2.52095">
        <ele>42</ele>
        <time>2024-01-25T15:19:15+01:00</time>
      </trkpt>
      <trkpt lat="48.7002" lon="2.5207">
        <ele>41</ele>
        <time>2024-01-25T15:19:43+01:00</time>
      </trkpt>
      <trkpt lat="48.7" lon="2.52051">
        <ele>42</ele>
        <time>2024-01-25T15:20:01+01:00</time>
      </trkpt>
      <trkpt lat="48.6998" lon="2.52032">
        <ele>42</ele>
        <time>2024-01-25T15:20:29+01:00</time>
      </trkpt>
      <trkpt lat="48.69962" lon="2.52012">
        <ele>42</ele>
        <time>2024-01-25T15:20:55+01:00</time>
      </trkpt>
      <trkpt lat="48.69943" lon="2.51992">
        <ele>42</ele>
        <time>2024-01-25T15:21:18+01:00</time>
      </trkpt>
      <trkpt lat="48.69936" lon="2.5196">
        <ele>41</ele>
        <time>2024-01-25T15:21:43+01:00</time>
      </trkpt>
      <trkpt lat="48.69919" lon="2.51936">
        <ele>41</ele>
        <time>2024-01-25T15:22:06+01:00</time>
      </trkpt>
      <trkpt lat="48.69901" lon="2.51916">
        <ele>41</ele>
        <time>2024-01-25T15:22:29+01:00</time>
      </trkpt>
      <trkpt lat="48.69881" lon="2.51899">
        <ele>42</ele>
        <time>2024-01-25T15:22:49+01:00</time>
      </trkpt>
      <trkpt lat="48.69861" lon="2.51883">
        <ele>43</ele>
        <time>2024-01-25T15:23:12+01:00</time>
      </trkpt>
      <trkpt lat="48.69843" lon="2.51859">
        <ele>41</ele>
        <time>2024-01-25T15:23:40+01:00</time>
      </trkpt>
      <trkpt lat="48.69822" lon="2.51845">
        <ele>42</ele>
        <time>2024-01-25T15:24:04+01:00</time>
      </trkpt>
      <trkpt lat="48.69802" lon="2.51825">
        <ele>45</ele>
        <time>2024-01-25T15:24:27+01:00</time>
      </trkpt>
      <trkpt lat="48.69785" lon="2.51803">
        <ele>46</ele>
        <time>2024-01-25T15:24:51+01:00</time>
      </trkpt>
      <trkpt lat="48.69772" lon="2.51774">
        <ele>46</ele>
        <time>2024-01-25T15:25:15+01:00</time>
      </trkpt>
      <trkpt lat="48.6976" lon="2.51743">
        <ele>42</ele>
        <time>2024-01-25T15:25:42+01:00</time>
      </trkpt>
      <trkpt lat="48.69742" lon="2.51721">
        <ele>42</ele>
        <time>2024-01-25T15:26:07+01:00</time>
      </trkpt>
      <trkpt lat="48.69729" lon="2.51693">
        <ele>43</ele>
        <time>2024-01-25T15:26:33+01:00</time>
      </trkpt>
      <trkpt lat="48.69743" lon="2.51666">
        <ele>43</ele>
        <time>2024-01-25T15:27:12+01:00</time>
      </trkpt>
      <trkpt lat="48.69739" lon="2.51633">
        <ele>40</ele>
        <time>2024-01-25T15:27:38+01:00</time>
      </trkpt>
      <trkpt lat="48.69743" lon="2.51599">
        <ele>39</ele>
        <time>2024-01-25T15:28:05+01:00</time>
      </trkpt>
      <trkpt lat="48.69739" lon="2.51565">
        <ele>40</ele>
        <time>2024-01-25T15:28:30+01:00</time>
      </trkpt>
      <trkpt lat="48.69733" lon="2.51532">
        <ele>40</ele>
        <time>2024-01-25T15:28:55+01:00</time>
      </trkpt>
      <trkpt lat="48.69732" lon="2.51497">
        <ele>41</ele>
        <time>2024-01-25T15:29:19+01:00</time>
      </trkpt>
      <trkpt lat="48.69733" lon="2.51461">
        <ele>41</ele>
        <time>2024-01-25T15:29:45+01:00</time>
      </trkpt>
      <trkpt lat="48.69727" lon="2.51426">
        <ele>43</ele>
        <time>2024-01-25T15:30:11+01:00</time>
      </trkpt>
      <trkpt lat="48.69719" lon="2.51394">
        <ele>43</ele>
        <time>2024-01-25T15:30:57+01:00</time>
      </trkpt>
      <trkpt lat="48.69722" lon="2.5136">
        <ele>43</ele>
        <time>2024-01-25T15:32:02+01:00</time>
      </trkpt>
      <trkpt lat="48.69717" lon="2.51326">
        <ele>46</ele>
        <time>2024-01-25T15:32:58+01:00</time>
      </trkpt>
      <trkpt lat="48.69705" lon="2.51296">
        <ele>45</ele>
        <time>2024-01-25T15:33:18+01:00</time>
      </trkpt>
      <trkpt lat="48.697" lon="2.51262">
        <ele>42</ele>
        <time>2024-01-25T15:34:02+01:00</time>
      </trkpt>
      <trkpt lat="48.69691" lon="2.51229">
        <ele>45</ele>
        <time>2024-01-25T15:34:27+01:00</time>
      </trkpt>
      <trkpt lat="48.69677" lon="2.51202">
        <ele>42</ele>
        <time>2024-01-25T15:34:57+01:00</time>
      </trkpt>
      <trkpt lat="48.69661" lon="2.51177">
        <ele>41</ele>
        <time>2024-01-25T15:35:22+01:00</time>
      </trkpt>
      <trkpt lat="48.69667" lon="2.51144">
        <ele>42</ele>
        <time>2024-01-25T15:35:59+01:00</time>
      </trkpt>
      <trkpt lat="48.69665" lon="2.5111">
        <ele>43</ele>
        <time>2024-01-25T15:36:32+01:00</time>
      </trkpt>
      <trkpt lat="48.6966" lon="2.51076">
        <ele>42</ele>
        <time>2024-01-25T15:36:59+01:00</time>
      </trkpt>
      <trkpt lat="48.69651" lon="2.51043">
        <ele>43</ele>
        <time>2024-01-25T15:37:21+01:00</time>
      </trkpt>
      <trkpt lat="48.69642" lon="2.51011">
        <ele>43</ele>
        <time>2024-01-25T15:37:43+01:00</time>
      </trkpt>
      <trkpt lat="48.69635" lon="2.50978">
        <ele>42</ele>
        <time>2024-01-25T15:38:08+01:00</time>
      </trkpt>
      <trkpt lat="48.69625" lon="2.50947">
        <ele>42</ele>
        <time>2024-01-25T15:38:35+01:00</time>
      </trkpt>
      <trkpt lat="48.69623" lon="2.50913">
        <ele>41</ele>
        <time>2024-01-25T15:39:00+01:00</time>
      </trkpt>
      <trkpt lat="48.69619" lon="2.50878">
        <ele>43</ele>
        <time>2024-01-25T15:39:24+01:00</time>
      </trkpt>
      <trkpt lat="48.69618" lon="2.50842">
        <ele>43</ele>
        <time>2024-01-25T15:39:50+01:00</time>
      </trkpt>
      <trkpt lat="48.69617" lon="2.50806">
        <ele>45</ele>
        <time>2024-01-25T15:40:15+01:00</time>
      </trkpt>
      <trkpt lat="48.69614" lon="2.50771">
        <ele>44</ele>
        <time>2024-01-25T15:40:38+01:00</time>
      </trkpt>
      <trkpt lat="48.69615" lon="2.50736">
        <ele>44</ele>
        <time>2024-01-25T15:41:04+01:00</time>
      </trkpt>
      <trkpt lat="48.69608" lon="2.50701">
        <ele>44</ele>
        <time>2024-01-25T15:42:31+01:00</time>
      </trkpt>
      <trkpt lat="48.69607" lon="2.50666">
        <ele>43</ele>
        <time>2024-01-25T15:50:05+01:00</time>
      </trkpt>
      <trkpt lat="48.69607" lon="2.50632">
        <ele>43</ele>
        <time>2024-01-25T15:50:33+01:00</time>
      </trkpt>
      <trkpt lat="48.69602" lon="2.50599">
        <ele>44</ele>
        <time>2024-01-25T15:50:56+01:00</time>
      </trkpt>
      <trkpt lat="48.69602" lon="2.50564">
        <ele>43</ele>
        <time>2024-01-25T15:51:19+01:00</time>
      </trkpt>
      <trkpt lat="48.696" lon="2.5053">
        <ele>45</ele>
        <time>2024-01-25T15:51:43+01:00</time>
      </trkpt>
      <trkpt lat="48.696" lon="2.50494">
        <ele>45</ele>
        <time>2024-01-25T15:52:06+01:00</time>
      </trkpt>
      <trkpt lat="48.69604" lon="2.5046">
        <ele>45</ele>
        <time>2024-01-25T15:52:29+01:00</time>
      </trkpt>
      <trkpt lat="48.69606" lon="2.50425">
        <ele>45</ele>
        <time>2024-01-25T15:52:53+01:00</time>
      </trkpt>
      <trkpt lat="48.69616" lon="2.50392">
        <ele>45</ele>
        <time>2024-01-25T15:53:14+01:00</time>
      </trkpt>
      <trkpt lat="48.69622" lon="2.50359">
        <ele>48</ele>
        <time>2024-01-25T15:53:35+01:00</time>
      </trkpt>
      <trkpt lat="48.69623" lon="2.50324">
        <ele>47</ele>
        <time>2024-01-25T15:54:02+01:00</time>
      </trkpt>
      <trkpt lat="48.69603" lon="2.50307">
        <ele>45</ele>
        <time>2024-01-25T15:54:27+01:00</time>
      </trkpt>
      <trkpt lat="48.69588" lon="2.50282">
        <ele>44</ele>
        <time>2024-01-25T15:55:02+01:00</time>
      </trkpt>
      <trkpt lat="48.69587" lon="2.50247">
        <ele>43</ele>
        <time>2024-01-25T15:55:53+01:00</time>
      </trkpt>
      <trkpt lat="48.69605" lon="2.50225">
        <ele>45</ele>
        <time>2024-01-25T15:56:15+01:00</time>
      </trkpt>
      <trkpt lat="48.69617" lon="2.50194">
        <ele>41</ele>
        <time>2024-01-25T15:56:39+01:00</time>
      </trkpt>
      <trkpt lat="48.69625" lon="2.50161">
        <ele>39</ele>
        <time>2024-01-25T15:57:02+01:00</time>
      </trkpt>
      <trkpt lat="48.69633" lon="2.50129">
        <ele>40</ele>
        <time>2024-01-25T15:57:27+01:00</time>
      </trkpt>
      <trkpt lat="48.69645" lon="2.50099">
        <ele>41</ele>
        <time>2024-01-25T15:57:52+01:00</time>
      </trkpt>
      <trkpt lat="48.69659" lon="2.50072">
        <ele>41</ele>
        <time>2024-01-25T15:58:15+01:00</time>
      </trkpt>
      <trkpt lat="48.69678" lon="2.50051">
        <ele>45</ele>
        <time>2024-01-25T15:58:41+01:00</time>
      </trkpt>
      <trkpt lat="48.69697" lon="2.50031">
        <ele>44</ele>
        <time>2024-01-25T15:59:05+01:00</time>
      </trkpt>
      <trkpt lat="48.69712" lon="2.50002">
        <ele>42</ele>
        <time>2024-01-25T15:59:34+01:00</time>
      </trkpt>
      <trkpt lat="48.6973" lon="2.49981">
        <ele>42</ele>
        <time>2024-01-25T15:59:57+01:00</time>
      </trkpt>
      <trkpt lat="48.69745" lon="2.49956">
        <ele>41</ele>
        <time>2024-01-25T16:00:22+01:00</time>
      </trkpt>
      <trkpt lat="48.6976" lon="2.49931">
        <ele>42</ele>
        <time>2024-01-25T16:00:43+01:00</time>
      </trkpt>
      <trkpt lat="48.69776" lon="2.49906">
        <ele>44</ele>
        <time>2024-01-25T16:01:08+01:00</time>
      </trkpt>
      <trkpt lat="48.69791" lon="2.49878">
        <ele>46</ele>
        <time>2024-01-25T16:01:31+01:00</time>
      </trkpt>
      <trkpt lat="48.69806" lon="2.49851">
        <ele>43</ele>
        <time>2024-01-25T16:02:00+01:00</time>
      </trkpt>
      <trkpt lat="48.69823" lon="2.49826">
        <ele>41</ele>
        <time>2024-01-25T16:02:22+01:00</time>
      </trkpt>
      <trkpt lat="48.69836" lon="2.49797">
        <ele>40</ele>
        <time>2024-01-25T16:02:48+01:00</time>
      </trkpt>
      <trkpt lat="48.69852" lon="2.49773">
        <ele>39</ele>
        <time>2024-01-25T16:03:14+01:00</time>
      </trkpt>
      <trkpt lat="48.69869" lon="2.4975">
        <ele>39</ele>
        <time>2024-01-25T16:03:37+01:00</time>
      </trkpt>
      <trkpt lat="48.69883" lon="2.49721">
        <ele>39</ele>
        <time>2024-01-25T16:03:59+01:00</time>
      </trkpt>
      <trkpt lat="48.69898" lon="2.49696">
        <ele>39</ele>
        <time>2024-01-25T16:04:23+01:00</time>
      </trkpt>
      <trkpt lat="48.69917" lon="2.49676">
        <ele>39</ele>
        <time>2024-01-25T16:04:51+01:00</time>
      </trkpt>
      <trkpt lat="48.69918" lon="2.49641">
        <ele>37</ele>
        <time>2024-01-25T16:05:23+01:00</time>
      </trkpt>
      <trkpt lat="48.699" lon="2.49623">
        <ele>41</ele>
        <time>2024-01-25T16:05:46+01:00</time>
      </trkpt>
      <trkpt lat="48.6988" lon="2.49598">
        <ele>38</ele>
        <time>2024-01-25T16:06:10+01:00</time>
      </trkpt>
      <trkpt lat="48.69874" lon="2.49564">
        <ele>38</ele>
        <time>2024-01-25T16:06:46+01:00</time>
      </trkpt>
      <trkpt lat="48.69875" lon="2.49527">
        <ele>39</ele>
        <time>2024-01-25T16:07:35+01:00</time>
      </trkpt>
      <trkpt lat="48.69869" lon="2.49494">
        <ele>39</ele>
        <time>2024-01-25T16:09:22+01:00</time>
      </trkpt>
      <trkpt lat="48.69885" lon="2.4947">
        <ele>38</ele>
        <time>2024-01-25T16:09:56+01:00</time>
      </trkpt>
      <trkpt lat="48.69901" lon="2.49444">
        <ele>37</ele>
        <time>2024-01-25T16:15:09+01:00</time>
      </trkpt>
    </trkseg>
  </trk>
</gpx>